createdAt,value
2023-01-20T00:00:31.771Z,17.87
2023-01-20T00:02:59.417Z,17.20
2023-01-20T00:05:26.962Z,17.20
2023-01-20T00:07:54.512Z,17.20
2023-01-20T00:10:21.996Z,17.57
2023-01-20T00:12:49.535Z,16.80
2023-01-20T00:15:17.102Z,18.23
2023-01-20T00:17:44.670Z,16.30
2023-01-20T00:20:12.617Z,17.97
2023-01-20T00:22:40.217Z,17.83
2023-01-20T00:25:07.805Z,16.97
2023-01-20T00:27:35.421Z,17.13
2023-01-20T00:30:02.972Z,16.93
2023-01-20T00:32:30.516Z,17.10
2023-01-20T00:34:57.974Z,16.73
2023-01-20T00:37:25.600Z,16.60
2023-01-20T00:39:53.102Z,17.47
2023-01-20T00:42:20.703Z,17.20
2023-01-20T00:44:48.214Z,18.37
2023-01-20T00:47:16.025Z,17.77
2023-01-20T00:49:43.537Z,17.80
2023-01-20T00:52:11.234Z,17.07
2023-01-20T00:54:38.715Z,18.77
2023-01-20T00:57:06.278Z,18.30
2023-01-20T00:59:33.747Z,19.50
2023-01-20T01:02:01.362Z,18.53
2023-01-20T01:04:28.965Z,19.10
2023-01-20T01:06:56.509Z,20.43
2023-01-20T01:09:24.109Z,21.27
2023-01-20T01:11:51.693Z,21.73
2023-01-20T01:14:19.206Z,21.77
2023-01-20T01:16:46.810Z,20.47
2023-01-20T01:19:14.533Z,21.50
2023-01-20T01:21:42.069Z,23.00
2023-01-20T01:24:09.569Z,22.57
2023-01-20T01:26:37.149Z,24.90
2023-01-20T01:29:04.626Z,26.43
2023-01-20T01:31:32.276Z,26.03
2023-01-20T01:33:59.850Z,26.10
2023-01-20T01:36:27.422Z,26.17
2023-01-20T01:38:58.418Z,25.37
2023-01-20T01:41:26.966Z,26.37
2023-01-20T01:44:02.261Z,26.97
2023-01-20T01:46:30.007Z,26.90
2023-01-20T01:48:57.986Z,26.27
2023-01-20T01:51:27.210Z,26.60
2023-01-20T01:53:56.995Z,26.07
2023-01-20T01:56:25.328Z,24.60
2023-01-20T01:58:54.108Z,25.47
2023-01-20T02:01:21.771Z,23.47
2023-01-20T02:03:55.274Z,24.97
2023-01-20T02:06:23.953Z,24.40
2023-01-20T02:08:51.986Z,22.47
2023-01-20T02:11:19.602Z,24.57
2023-01-20T02:13:47.190Z,22.23
2023-01-20T02:16:20.983Z,24.43
2023-01-20T02:18:51.669Z,23.13
2023-01-20T02:21:37.759Z,23.97
2023-01-20T02:24:23.659Z,23.10
2023-01-20T02:26:51.196Z,23.53
2023-01-20T02:29:45.758Z,22.93
2023-01-20T02:32:13.294Z,22.93
2023-01-20T02:34:43.681Z,23.07
2023-01-20T02:37:14.023Z,23.10
2023-01-20T02:39:50.525Z,22.63
2023-01-20T02:42:25.127Z,22.07
2023-01-20T02:44:58.715Z,20.93
2023-01-20T02:47:32.223Z,21.77
2023-01-20T02:50:08.470Z,23.17
2023-01-20T02:52:37.419Z,21.50
2023-01-20T02:55:06.796Z,20.93
2023-01-20T02:57:46.196Z,20.53
2023-01-20T03:00:17.885Z,21.30
2023-01-20T03:02:46.823Z,19.77
2023-01-20T03:05:40.812Z,19.83
2023-01-20T03:08:09.431Z,20.27
2023-01-20T03:10:38.150Z,19.40
2023-01-20T03:13:10.480Z,18.13
2023-01-20T03:15:43.835Z,17.50
2023-01-20T03:18:11.396Z,19.63
2023-01-20T03:20:38.897Z,18.43
2023-01-20T03:23:06.449Z,19.63
2023-01-20T03:25:34.214Z,18.80
2023-01-20T03:28:01.743Z,18.73
2023-01-20T03:30:29.333Z,17.27
2023-01-20T03:32:57.165Z,17.77
2023-01-20T03:35:24.902Z,18.87
2023-01-20T03:37:52.501Z,18.87
2023-01-20T03:40:20.023Z,18.57
2023-01-20T03:42:53.400Z,19.23
2023-01-20T03:45:34.215Z,17.63
2023-01-20T03:48:04.816Z,17.67
2023-01-20T03:50:51.111Z,17.83
2023-01-20T03:53:24.810Z,18.17
2023-01-20T03:55:54.248Z,18.30
2023-01-20T03:58:24.382Z,19.43
2023-01-20T04:00:52.684Z,20.03
2023-01-20T04:03:22.038Z,17.57
2023-01-20T04:05:50.625Z,20.10
2023-01-20T04:08:19.354Z,19.63
2023-01-20T04:10:49.042Z,20.03
2023-01-20T04:13:16.675Z,18.00
2023-01-20T04:15:45.587Z,19.37
2023-01-20T04:18:14.206Z,18.20
2023-01-20T04:20:42.422Z,20.87
2023-01-20T04:23:15.025Z,20.27
2023-01-20T04:25:42.860Z,20.00
2023-01-20T04:28:10.363Z,18.90
2023-01-20T04:30:38.004Z,20.13
2023-01-20T04:33:05.532Z,19.43
2023-01-20T04:35:33.068Z,19.20
2023-01-20T04:38:00.573Z,20.03
2023-01-20T04:40:28.152Z,19.33
2023-01-20T04:42:55.707Z,20.47
2023-01-20T04:45:23.328Z,19.10
2023-01-20T04:47:50.828Z,20.10
2023-01-20T04:50:18.437Z,19.23
2023-01-20T04:52:45.921Z,19.97
2023-01-20T04:55:13.885Z,17.80
2023-01-20T04:57:41.566Z,18.83
2023-01-20T05:00:09.460Z,17.67
2023-01-20T05:02:36.997Z,18.93
2023-01-20T05:05:04.754Z,18.27
2023-01-20T05:07:32.295Z,18.60
2023-01-20T05:10:00.067Z,19.07
2023-01-20T05:12:27.727Z,18.03
2023-01-20T05:14:55.289Z,17.83
2023-01-20T05:17:22.787Z,17.03
2023-01-20T05:19:50.394Z,16.20
2023-01-20T05:22:17.897Z,17.03
2023-01-20T05:24:45.443Z,15.63
2023-01-20T05:27:12.959Z,16.27
2023-01-20T05:29:40.505Z,14.63
2023-01-20T05:32:07.988Z,16.80
2023-01-20T05:34:35.549Z,15.13
2023-01-20T05:37:03.068Z,15.47
2023-01-20T05:39:30.603Z,14.23
2023-01-20T05:41:58.072Z,15.90
2023-01-20T05:44:25.637Z,15.43
2023-01-20T05:46:53.171Z,14.40
2023-01-20T05:49:20.755Z,15.27
2023-01-20T05:51:48.261Z,16.17
2023-01-20T05:54:15.835Z,14.83
2023-01-20T05:56:43.309Z,16.93
2023-01-20T05:59:11.027Z,15.00
2023-01-20T06:01:38.580Z,15.73
2023-01-20T06:04:06.248Z,15.70
2023-01-20T06:06:33.916Z,15.73
2023-01-20T06:09:01.608Z,16.77
2023-01-20T06:11:29.131Z,15.77
2023-01-20T06:13:56.694Z,15.53
2023-01-20T06:16:24.279Z,17.30
2023-01-20T06:18:51.828Z,17.40
2023-01-20T06:21:19.364Z,17.47
2023-01-20T06:23:46.895Z,16.23
2023-01-20T06:26:14.573Z,17.23
2023-01-20T06:28:42.575Z,16.30
2023-01-20T06:31:11.914Z,16.47
2023-01-20T06:33:39.945Z,17.30
2023-01-20T06:36:07.837Z,16.77
2023-01-20T06:38:36.113Z,18.60
2023-01-20T06:41:05.019Z,18.00
2023-01-20T06:43:33.277Z,18.10
2023-01-20T06:46:05.092Z,17.27
2023-01-20T06:48:32.829Z,17.77
2023-01-20T06:51:19.902Z,17.70
2023-01-20T06:53:47.765Z,18.27
2023-01-20T06:56:16.049Z,16.67
2023-01-20T06:58:43.906Z,17.77
2023-01-20T07:01:13.080Z,17.70
2023-01-20T07:03:42.373Z,16.90
2023-01-20T07:06:23.285Z,16.50
2023-01-20T07:08:50.955Z,17.00
2023-01-20T07:11:18.492Z,16.93
2023-01-20T07:13:46.157Z,15.70
2023-01-20T07:16:15.742Z,16.67
2023-01-20T07:18:44.207Z,16.90
2023-01-20T07:21:12.234Z,17.27
2023-01-20T07:23:39.762Z,17.93
2023-01-20T07:26:08.362Z,16.47
2023-01-20T07:28:36.152Z,18.43
2023-01-20T07:31:07.685Z,17.83
2023-01-20T07:33:35.780Z,16.77
2023-01-20T07:36:03.453Z,17.03
2023-01-20T07:38:31.283Z,17.97
2023-01-20T07:41:00.096Z,17.57
2023-01-20T07:43:27.933Z,18.10
2023-01-20T07:45:56.505Z,21.25
2023-01-20T07:48:24.224Z,18.27
2023-01-20T07:51:02.497Z,18.10
2023-01-20T07:53:30.549Z,15.70
2023-01-20T07:56:01.271Z,18.00
2023-01-20T07:58:29.379Z,17.63
2023-01-20T08:00:57.087Z,17.80
2023-01-20T08:03:27.112Z,16.83
2023-01-20T08:05:54.955Z,16.67
2023-01-20T08:08:23.518Z,15.87
2023-01-20T08:10:54.707Z,16.90
2023-01-20T08:13:22.455Z,16.70
2023-01-20T08:15:49.970Z,17.40
2023-01-20T08:18:18.032Z,15.77
2023-01-20T08:20:45.545Z,16.77
2023-01-20T08:23:13.148Z,16.37
2023-01-20T08:25:40.615Z,16.53
2023-01-20T08:28:08.304Z,16.33
2023-01-20T08:30:36.131Z,16.60
2023-01-20T08:33:03.677Z,17.17
2023-01-20T08:35:31.156Z,16.00
2023-01-20T08:37:58.654Z,15.50
2023-01-20T08:40:26.178Z,16.40
2023-01-20T08:42:53.742Z,16.10
2023-01-20T08:45:21.225Z,14.97
2023-01-20T08:47:48.799Z,16.60
2023-01-20T08:50:16.451Z,16.40
2023-01-20T08:52:44.029Z,15.07
2023-01-20T08:55:12.043Z,15.43
2023-01-20T08:57:39.730Z,16.40
2023-01-20T09:00:08.819Z,16.23
2023-01-20T09:02:37.503Z,16.07
2023-01-20T09:05:05.462Z,16.80
2023-01-20T09:07:33.260Z,17.63
2023-01-20T09:10:00.827Z,16.37
2023-01-20T09:12:28.433Z,17.07
2023-01-20T09:14:55.948Z,15.90
2023-01-20T09:17:23.486Z,16.17
2023-01-20T09:19:50.993Z,16.43
2023-01-20T09:22:18.588Z,16.60
2023-01-20T09:24:46.051Z,15.30
2023-01-20T09:27:13.574Z,16.60
2023-01-20T09:29:41.106Z,16.50
2023-01-20T09:32:08.651Z,15.77
2023-01-20T09:34:36.279Z,15.23
2023-01-20T09:37:03.954Z,18.35
2023-01-20T09:39:31.518Z,14.70
2023-01-20T09:42:01.815Z,15.37
2023-01-20T09:44:38.493Z,14.00
2023-01-20T09:47:24.867Z,12.90
2023-01-20T09:49:52.407Z,13.10
2023-01-20T09:52:27.931Z,13.63
2023-01-20T09:54:59.500Z,13.70
2023-01-20T09:57:29.640Z,14.37
2023-01-20T10:00:04.109Z,14.43
2023-01-20T10:02:34.699Z,13.83
2023-01-20T10:05:08.493Z,13.63
2023-01-20T10:07:39.764Z,13.53
2023-01-20T10:10:19.233Z,13.37
2023-01-20T10:12:54.520Z,14.30
2023-01-20T10:15:27.281Z,12.97
2023-01-20T10:18:01.567Z,13.77
2023-01-20T10:20:32.240Z,13.53
2023-01-20T10:23:11.596Z,14.10
2023-01-20T10:25:41.578Z,12.70
2023-01-20T10:28:09.087Z,13.03
2023-01-20T10:30:37.236Z,14.43
2023-01-20T10:33:07.896Z,11.90
2023-01-20T10:35:37.925Z,12.77
2023-01-20T10:38:09.429Z,13.57
2023-01-20T10:40:41.743Z,12.53
2023-01-20T10:43:13.775Z,11.63
2023-01-20T10:45:59.947Z,14.63
2023-01-20T10:48:42.608Z,12.13
2023-01-20T10:51:17.846Z,11.47
2023-01-20T10:53:50.327Z,11.73
2023-01-20T10:56:26.528Z,10.40
2023-01-20T10:58:54.131Z,12.47
2023-01-20T11:01:21.705Z,10.73
2023-01-20T11:03:49.831Z,10.77
2023-01-20T11:06:22.052Z,11.37
2023-01-20T11:08:49.843Z,11.43
2023-01-20T11:11:20.910Z,12.27
2023-01-20T11:13:48.912Z,11.27
2023-01-20T11:16:24.933Z,11.87
2023-01-20T11:19:03.531Z,12.03
2023-01-20T11:21:32.507Z,10.67
2023-01-20T11:24:00.417Z,10.83
2023-01-20T11:26:32.739Z,11.03
2023-01-20T11:29:01.410Z,11.27
2023-01-20T11:31:49.225Z,10.37
2023-01-20T11:34:21.741Z,10.60
2023-01-20T11:36:49.980Z,9.50
2023-01-20T11:39:27.852Z,11.43
2023-01-20T11:42:21.872Z,10.50
2023-01-20T11:44:50.955Z,11.27
2023-01-20T11:47:18.412Z,11.17
2023-01-20T11:49:45.978Z,11.20
2023-01-20T11:52:20.885Z,9.97
2023-01-20T11:54:48.510Z,10.10
2023-01-20T11:57:17.612Z,10.23
2023-01-20T11:59:49.047Z,8.47
2023-01-20T12:02:23.906Z,10.33
2023-01-20T12:04:52.652Z,10.53
2023-01-20T12:07:23.254Z,11.07
2023-01-20T12:09:53.349Z,10.20
2023-01-20T12:12:41.008Z,9.97
2023-01-20T12:15:14.509Z,10.70
2023-01-20T12:17:42.118Z,10.87
2023-01-20T12:20:17.585Z,10.03
2023-01-20T12:22:59.589Z,9.70
2023-01-20T12:25:36.346Z,9.93
2023-01-20T12:28:13.210Z,10.47
2023-01-20T12:30:43.384Z,9.90
2023-01-20T12:33:18.974Z,10.30
2023-01-20T12:35:50.748Z,10.17
2023-01-20T12:38:19.587Z,10.67
2023-01-20T12:40:53.287Z,10.80
2023-01-20T12:43:34.821Z,10.43
2023-01-20T12:46:08.388Z,12.30
2023-01-20T12:48:49.696Z,10.90
2023-01-20T12:51:26.232Z,10.40
2023-01-20T12:54:02.838Z,10.70
2023-01-20T12:56:46.126Z,10.67
2023-01-20T12:59:32.544Z,9.43
2023-01-20T13:02:18.777Z,8.67
2023-01-20T13:04:46.406Z,7.90
2023-01-20T13:07:19.895Z,8.93
2023-01-20T13:10:06.115Z,8.77
2023-01-20T13:12:36.774Z,8.63
2023-01-20T13:15:10.280Z,8.83
2023-01-20T13:17:41.163Z,8.73
2023-01-20T13:20:29.066Z,8.20
2023-01-20T13:22:57.052Z,8.63
2023-01-20T13:25:25.037Z,8.30
2023-01-20T13:27:52.842Z,9.10
2023-01-20T13:30:39.256Z,7.87
2023-01-20T13:33:13.674Z,7.77
2023-01-20T13:35:44.688Z,7.57
2023-01-20T13:38:20.157Z,6.73
2023-01-20T13:40:49.747Z,6.50
2023-01-20T13:43:23.072Z,5.80
2023-01-20T13:46:05.919Z,4.60
2023-01-20T13:48:34.736Z,4.43
2023-01-20T13:51:17.291Z,4.80
2023-01-20T13:53:44.911Z,3.60
2023-01-20T13:56:31.571Z,3.47
2023-01-20T13:58:59.397Z,3.20
2023-01-20T14:01:28.020Z,2.50
2023-01-20T14:04:02.888Z,2.50
2023-01-20T14:06:30.636Z,2.73
2023-01-20T14:08:58.218Z,2.57
2023-01-20T14:11:26.973Z,2.20
2023-01-20T14:13:56.251Z,2.27
2023-01-20T14:16:26.493Z,2.07
2023-01-20T14:18:55.732Z,1.93
2023-01-20T14:21:24.967Z,2.10
2023-01-20T14:23:52.797Z,2.60
2023-01-20T14:26:25.119Z,3.30
2023-01-20T14:28:53.944Z,4.30
2023-01-20T14:31:23.530Z,5.20
2023-01-20T14:33:56.708Z,5.33
2023-01-20T14:36:25.463Z,6.73
2023-01-20T14:38:57.591Z,5.80
2023-01-20T14:41:45.472Z,5.47
2023-01-20T14:44:15.240Z,7.30
2023-01-20T14:46:42.980Z,8.20
2023-01-20T14:49:14.986Z,9.20
2023-01-20T14:51:42.793Z,8.90
2023-01-20T14:54:29.096Z,9.27
2023-01-20T14:56:57.486Z,9.40
2023-01-20T14:59:25.563Z,9.33
2023-01-20T15:01:54.232Z,10.13
2023-01-20T15:04:21.991Z,9.60
2023-01-20T15:06:53.606Z,10.37
2023-01-20T15:09:28.781Z,10.37
2023-01-20T15:12:15.332Z,10.63
2023-01-20T15:14:42.861Z,10.77
2023-01-20T15:17:10.437Z,10.77
2023-01-20T15:19:37.956Z,9.80
2023-01-20T15:22:16.686Z,10.73
2023-01-20T15:24:44.814Z,8.13
2023-01-20T15:27:26.344Z,11.20
2023-01-20T15:30:04.075Z,8.40
2023-01-20T15:32:31.683Z,8.13
2023-01-20T15:34:59.148Z,9.37
2023-01-20T15:37:26.686Z,8.97
2023-01-20T15:39:54.132Z,9.30
2023-01-20T15:42:21.622Z,9.13
2023-01-20T15:44:49.086Z,9.40
2023-01-20T15:47:16.650Z,8.77
2023-01-20T15:49:44.091Z,8.77
2023-01-20T15:52:11.787Z,10.43
2023-01-20T15:54:39.334Z,9.40
2023-01-20T15:57:13.604Z,9.03
2023-01-20T15:59:41.291Z,8.93
2023-01-20T16:02:16.751Z,8.63
2023-01-20T16:04:44.323Z,8.47
2023-01-20T16:07:15.510Z,9.80
2023-01-20T16:09:43.467Z,8.27
2023-01-20T16:12:17.606Z,9.03
2023-01-20T16:14:45.393Z,8.33
2023-01-20T16:17:17.179Z,8.83
2023-01-20T16:19:44.922Z,8.00
2023-01-20T16:22:12.391Z,7.03
2023-01-20T16:24:40.357Z,7.67
2023-01-20T16:27:21.759Z,7.07
2023-01-20T16:29:49.744Z,5.73
2023-01-20T16:32:19.630Z,5.67
2023-01-20T16:34:48.517Z,6.33
2023-01-20T16:37:16.078Z,5.57
2023-01-20T16:39:43.768Z,6.90
2023-01-20T16:42:12.863Z,7.30
2023-01-20T16:44:40.418Z,7.73
2023-01-20T16:47:07.887Z,7.57
2023-01-20T16:49:35.449Z,5.43
2023-01-20T16:52:02.980Z,7.83
2023-01-20T16:54:30.531Z,6.40
2023-01-20T16:56:58.062Z,8.33
2023-01-20T16:59:25.608Z,8.43
2023-01-20T17:01:53.280Z,7.50
2023-01-20T17:04:20.790Z,7.20
2023-01-20T17:06:48.318Z,6.33
2023-01-20T17:09:15.935Z,6.70
2023-01-20T17:11:43.443Z,7.03
2023-01-20T17:14:11.462Z,6.63
2023-01-20T17:16:39.387Z,7.80
2023-01-20T17:19:07.145Z,7.53
2023-01-20T17:21:37.511Z,8.07
2023-01-20T17:24:05.544Z,8.17
2023-01-20T17:26:33.278Z,8.63
2023-01-20T17:29:02.632Z,8.13
2023-01-20T17:31:30.426Z,8.30
2023-01-20T17:33:58.032Z,7.63
2023-01-20T17:36:25.550Z,7.33
2023-01-20T17:38:53.105Z,6.80
2023-01-20T17:41:20.651Z,8.57
2023-01-20T17:43:48.228Z,8.73
2023-01-20T17:46:17.019Z,8.10
2023-01-20T17:48:45.041Z,9.10
2023-01-20T17:51:19.670Z,10.00
2023-01-20T17:53:47.614Z,10.97
2023-01-20T17:56:15.406Z,9.70
2023-01-20T17:58:43.896Z,9.77
2023-01-20T18:01:19.116Z,9.40
2023-01-20T18:03:47.586Z,8.73
2023-01-20T18:06:15.886Z,9.37
2023-01-20T18:08:45.545Z,9.70
2023-01-20T18:11:14.385Z,9.77
2023-01-20T18:13:42.493Z,9.53
2023-01-20T18:16:10.799Z,10.53
2023-01-20T18:18:42.415Z,10.33
2023-01-20T18:21:09.997Z,11.10
2023-01-20T18:23:39.119Z,10.47
2023-01-20T18:26:07.843Z,12.27
2023-01-20T18:28:35.996Z,10.43
2023-01-20T18:31:08.015Z,11.43
2023-01-20T18:33:36.193Z,8.67
2023-01-20T18:36:03.841Z,11.23
2023-01-20T18:38:31.421Z,7.33
2023-01-20T18:40:58.867Z,11.03
2023-01-20T18:43:26.446Z,9.03
2023-01-20T18:45:54.253Z,10.67
2023-01-20T18:48:21.832Z,12.83
2023-01-20T18:50:49.480Z,10.67
2023-01-20T18:53:17.005Z,12.53
2023-01-20T18:55:44.596Z,11.03
2023-01-20T18:58:12.165Z,9.27
2023-01-20T19:00:39.841Z,11.67
2023-01-20T19:03:07.532Z,11.90
2023-01-20T19:05:35.038Z,7.43
2023-01-20T19:08:02.649Z,10.03
2023-01-20T19:10:30.146Z,9.73
2023-01-20T19:12:57.697Z,8.63
2023-01-20T19:15:25.202Z,11.50
2023-01-20T19:17:52.764Z,12.87
2023-01-20T19:20:20.269Z,11.53
2023-01-20T19:22:47.763Z,10.57
2023-01-20T19:25:15.336Z,12.90
2023-01-20T19:27:42.949Z,11.73
2023-01-20T19:30:10.710Z,11.40
2023-01-20T19:32:41.648Z,13.17
2023-01-20T19:35:09.883Z,12.80
2023-01-20T19:37:37.330Z,12.17
2023-01-20T19:40:05.311Z,12.30
2023-01-20T19:42:33.201Z,7.97
2023-01-20T19:45:00.721Z,10.07
2023-01-20T19:47:30.728Z,8.27
2023-01-20T19:49:58.322Z,9.23
2023-01-20T19:52:26.012Z,10.80
2023-01-20T19:54:53.553Z,11.50
2023-01-20T19:57:21.120Z,11.87
2023-01-20T19:59:48.685Z,10.30
2023-01-20T20:02:16.222Z,11.50
2023-01-20T20:04:43.765Z,9.97
2023-01-20T20:07:11.292Z,9.07
2023-01-20T20:09:38.921Z,9.83
2023-01-20T20:12:06.501Z,5.70
2023-01-20T20:14:34.212Z,7.60
2023-01-20T20:17:01.712Z,7.37
2023-01-20T20:19:29.433Z,12.87
2023-01-20T20:21:56.980Z,11.20
2023-01-20T20:24:25.510Z,8.00
2023-01-20T20:26:52.978Z,11.10
2023-01-20T20:29:20.516Z,13.23
2023-01-20T20:31:48.108Z,12.10
2023-01-20T20:34:17.201Z,10.50
2023-01-20T20:36:45.093Z,7.27
2023-01-20T20:39:17.301Z,10.83
2023-01-20T20:41:45.049Z,9.57
2023-01-20T20:44:12.655Z,7.77
2023-01-20T20:46:40.186Z,12.40
2023-01-20T20:49:07.789Z,11.07
2023-01-20T20:51:35.324Z,11.70
2023-01-20T20:54:03.418Z,12.10
2023-01-20T20:56:31.143Z,11.73
2023-01-20T20:59:02.334Z,12.00
2023-01-20T21:01:31.501Z,10.93
2023-01-20T21:03:59.016Z,11.40
2023-01-20T21:06:26.747Z,12.20
2023-01-20T21:08:54.258Z,11.97
2023-01-20T21:11:22.138Z,10.97
2023-01-20T21:13:49.817Z,10.33
2023-01-20T21:16:18.251Z,10.00
2023-01-20T21:18:45.746Z,10.53
2023-01-20T21:21:14.152Z,11.10
2023-01-20T21:23:41.638Z,10.57
2023-01-20T21:26:11.637Z,9.10
2023-01-20T21:28:39.899Z,10.60
2023-01-20T21:31:08.144Z,11.43
2023-01-20T21:33:38.025Z,14.70
2023-01-20T21:36:06.284Z,14.60
2023-01-20T21:38:33.826Z,12.27
2023-01-20T21:41:05.159Z,14.10
2023-01-20T21:43:33.359Z,14.00
2023-01-20T21:46:00.840Z,13.30
2023-01-20T21:48:28.703Z,10.17
2023-01-20T21:50:56.345Z,10.17
2023-01-20T21:53:23.923Z,11.50
2023-01-20T21:55:51.389Z,15.70
2023-01-20T21:58:18.937Z,13.10
2023-01-20T22:00:46.469Z,16.33
2023-01-20T22:03:14.044Z,17.57
2023-01-20T22:05:41.574Z,14.43
2023-01-20T22:08:09.086Z,14.87
2023-01-20T22:10:36.625Z,15.40
2023-01-20T22:13:04.217Z,14.50
2023-01-20T22:15:31.722Z,12.80
2023-01-20T22:17:59.351Z,11.63
2023-01-20T22:20:26.833Z,11.23
2023-01-20T22:22:54.353Z,13.13
2023-01-20T22:25:21.928Z,13.67
2023-01-20T22:27:49.482Z,15.53
2023-01-20T22:30:17.443Z,15.10
2023-01-20T22:32:45.326Z,9.13
2023-01-20T22:35:12.836Z,16.63
2023-01-20T22:37:40.404Z,17.43
2023-01-20T22:40:08.078Z,14.97
2023-01-20T22:42:35.610Z,19.97
2023-01-20T22:45:03.073Z,20.63
2023-01-20T22:47:30.563Z,18.67
2023-01-20T22:49:58.042Z,17.53
2023-01-20T22:52:25.645Z,20.33
2023-01-20T22:54:53.113Z,18.70
2023-01-20T22:57:20.617Z,16.33
2023-01-20T22:59:48.107Z,18.43
2023-01-20T23:02:15.639Z,20.27
2023-01-20T23:04:43.146Z,21.27
2023-01-20T23:07:10.786Z,22.20
2023-01-20T23:09:38.291Z,21.70
2023-01-20T23:12:06.008Z,21.40
2023-01-20T23:14:33.553Z,19.83
2023-01-20T23:17:01.151Z,18.30
2023-01-20T23:19:28.653Z,21.57
2023-01-20T23:21:56.137Z,18.17
2023-01-20T23:24:23.666Z,11.43
2023-01-20T23:26:53.279Z,21.67
2023-01-20T23:29:20.861Z,15.73
2023-01-20T23:31:48.385Z,19.83
2023-01-20T23:34:15.891Z,16.70
2023-01-20T23:36:43.386Z,13.57
2023-01-20T23:39:10.858Z,16.17
2023-01-20T23:41:38.391Z,23.10
2023-01-20T23:44:06.064Z,17.67
2023-01-20T23:46:33.654Z,18.60
2023-01-20T23:49:01.157Z,17.17
2023-01-20T23:51:28.755Z,20.83
2023-01-20T23:53:56.350Z,19.93
2023-01-20T23:56:24.633Z,12.57
2023-01-20T23:58:52.449Z,19.37
